createdAt,value
2023-02-22T00:02:25.861Z,45.15
2023-02-22T00:04:55.309Z,44.28
2023-02-22T00:07:24.439Z,42.53
2023-02-22T00:09:53.141Z,38.75
2023-02-22T00:12:21.927Z,46.08
2023-02-22T00:14:51.969Z,47.53
2023-02-22T00:17:21.286Z,45.00
2023-02-22T00:19:52.347Z,48.15
2023-02-22T00:22:21.398Z,51.30
2023-02-22T00:24:50.817Z,44.88
2023-02-22T00:27:19.603Z,45.75
2023-02-22T00:29:51.140Z,48.40
2023-02-22T00:32:19.927Z,46.38
2023-02-22T00:34:53.300Z,44.38
2023-02-22T00:37:22.354Z,47.45
2023-02-22T00:39:52.893Z,50.33
2023-02-22T00:42:22.104Z,45.70
2023-02-22T00:44:50.834Z,51.65
2023-02-22T00:47:19.485Z,50.72
2023-02-22T00:49:49.347Z,45.40
2023-02-22T00:52:17.999Z,46.45
2023-02-22T00:54:47.276Z,46.22
2023-02-22T00:57:18.424Z,41.65
2023-02-22T00:59:48.250Z,42.55
2023-02-22T01:02:19.205Z,45.42
2023-02-22T01:04:49.063Z,41.30
2023-02-22T01:07:17.894Z,50.50
2023-02-22T01:09:46.520Z,45.03
2023-02-22T01:12:16.803Z,45.55
2023-02-22T01:14:45.627Z,44.40
2023-02-22T01:17:14.161Z,42.45
2023-02-22T01:19:43.319Z,43.72
2023-02-22T01:22:12.133Z,45.22
2023-02-22T01:24:40.786Z,44.00
2023-02-22T01:27:09.599Z,39.83
2023-02-22T01:29:40.047Z,42.83
2023-02-22T01:32:08.931Z,37.53
2023-02-22T01:34:37.565Z,32.35
2023-02-22T01:37:07.282Z,40.05
2023-02-22T01:39:35.990Z,36.88
2023-02-22T01:42:04.856Z,37.03
2023-02-22T01:44:36.423Z,34.42
2023-02-22T01:47:07.428Z,36.10
2023-02-22T01:49:39.798Z,36.35
2023-02-22T01:52:12.232Z,34.45
2023-02-22T01:54:47.509Z,34.10
2023-02-22T01:57:24.488Z,33.00
2023-02-22T02:00:02.848Z,32.83
2023-02-22T02:02:52.023Z,33.40
2023-02-22T02:05:25.641Z,35.17
2023-02-22T02:07:54.952Z,33.65
2023-02-22T02:10:24.985Z,32.10
2023-02-22T02:12:54.814Z,33.28
2023-02-22T02:15:31.490Z,36.70
2023-02-22T02:18:04.661Z,30.63
2023-02-22T02:20:45.416Z,38.40
2023-02-22T02:23:47.464Z,34.08
2023-02-22T02:26:53.437Z,34.40
2023-02-22T02:29:42.076Z,31.95
2023-02-22T02:32:22.758Z,34.63
2023-02-22T02:35:02.851Z,34.92
2023-02-22T02:37:41.401Z,34.42
2023-02-22T02:40:26.320Z,33.95
2023-02-22T02:43:07.985Z,36.97
2023-02-22T02:46:06.511Z,33.97
2023-02-22T02:48:41.111Z,34.63
2023-02-22T02:51:15.259Z,31.98
2023-02-22T02:53:48.814Z,36.97
2023-02-22T02:56:18.818Z,46.83
2023-02-22T02:58:52.187Z,36.72
2023-02-22T03:01:23.907Z,35.78
2023-02-22T03:03:59.836Z,35.65
2023-02-22T03:06:50.364Z,38.50
2023-02-22T03:09:59.272Z,39.78
2023-02-22T03:12:39.271Z,36.78
2023-02-22T03:15:33.319Z,42.17
2023-02-22T03:18:11.410Z,36.97
2023-02-22T03:21:00.836Z,40.97
2023-02-22T03:23:48.767Z,39.33
2023-02-22T03:26:26.321Z,41.13
2023-02-22T03:28:59.568Z,39.47
2023-02-22T03:31:37.962Z,44.72
2023-02-22T03:34:14.945Z,39.55
2023-02-22T03:36:54.219Z,42.90
2023-02-22T03:39:31.549Z,44.40
2023-02-22T03:42:12.836Z,45.13
2023-02-22T03:44:44.423Z,40.30
2023-02-22T03:47:22.678Z,39.35
2023-02-22T03:50:07.630Z,43.30
2023-02-22T03:52:38.409Z,44.80
2023-02-22T03:55:14.097Z,45.40
2023-02-22T03:57:49.700Z,37.10
2023-02-22T04:00:27.413Z,41.22
2023-02-22T04:02:57.433Z,48.63
2023-02-22T04:05:26.947Z,39.70
2023-02-22T04:07:58.578Z,48.67
2023-02-22T04:10:28.891Z,47.10
2023-02-22T04:12:57.544Z,51.35
2023-02-22T04:15:26.668Z,46.33
2023-02-22T04:18:01.551Z,42.55
2023-02-22T04:20:32.496Z,51.10
2023-02-22T04:23:06.704Z,44.60
2023-02-22T04:25:38.903Z,44.20
2023-02-22T04:28:12.940Z,45.50
2023-02-22T04:31:10.688Z,63.58
2023-02-22T04:33:39.801Z,44.42
2023-02-22T04:36:11.528Z,50.97
2023-02-22T04:38:40.908Z,45.40
2023-02-22T04:41:09.619Z,46.83
2023-02-22T04:43:38.395Z,45.85
2023-02-22T04:46:17.184Z,47.90
2023-02-22T04:48:49.204Z,42.03
2023-02-22T04:51:22.059Z,44.67
2023-02-22T04:54:10.803Z,42.75
2023-02-22T04:56:43.338Z,37.90
2023-02-22T04:59:12.030Z,48.00
2023-02-22T05:01:44.740Z,45.40
2023-02-22T05:04:13.473Z,53.60
2023-02-22T05:06:42.850Z,46.60
2023-02-22T05:09:11.572Z,36.45
2023-02-22T05:11:40.822Z,45.38
2023-02-22T05:14:09.683Z,44.00
2023-02-22T05:16:38.551Z,39.45
2023-02-22T05:19:07.308Z,37.03
2023-02-22T05:21:35.766Z,42.47
2023-02-22T05:24:04.476Z,36.40
2023-02-22T05:26:33.661Z,38.83
2023-02-22T05:29:02.512Z,40.47
2023-02-22T05:31:31.173Z,35.45
2023-02-22T05:34:01.919Z,40.50
2023-02-22T05:36:32.025Z,42.03
2023-02-22T05:39:00.721Z,40.83
2023-02-22T05:41:29.610Z,37.65
2023-02-22T05:43:58.428Z,35.55
2023-02-22T05:46:27.131Z,38.45
2023-02-22T05:48:56.220Z,45.20
2023-02-22T05:51:25.015Z,39.03
2023-02-22T05:53:53.807Z,36.58
2023-02-22T05:56:27.991Z,32.55
2023-02-22T05:58:59.185Z,37.10
2023-02-22T06:01:27.948Z,37.22
2023-02-22T06:03:59.702Z,36.20
2023-02-22T06:06:28.085Z,37.10
2023-02-22T06:08:56.727Z,30.23
2023-02-22T06:11:25.449Z,30.15
2023-02-22T06:13:54.534Z,43.05
2023-02-22T06:16:24.360Z,30.25
2023-02-22T06:18:52.980Z,34.10
2023-02-22T06:21:21.811Z,42.92
2023-02-22T06:23:53.067Z,30.40
2023-02-22T06:26:26.374Z,32.50
2023-02-22T06:28:55.353Z,30.55
2023-02-22T06:31:24.713Z,36.15
2023-02-22T06:33:54.030Z,36.72
2023-02-22T06:36:22.935Z,30.90
2023-02-22T06:38:51.734Z,31.38
2023-02-22T06:41:20.481Z,31.73
2023-02-22T06:43:49.573Z,30.30
2023-02-22T06:46:18.188Z,33.55
2023-02-22T06:48:46.969Z,32.72
2023-02-22T06:51:16.143Z,33.45
2023-02-22T06:53:45.918Z,29.75
2023-02-22T06:56:15.440Z,31.25
2023-02-22T06:58:44.301Z,35.03
2023-02-22T07:01:13.513Z,30.95
2023-02-22T07:03:43.742Z,32.58
2023-02-22T07:06:13.099Z,31.67
2023-02-22T07:08:41.947Z,34.85
2023-02-22T07:11:10.691Z,31.67
2023-02-22T07:13:39.416Z,32.67
2023-02-22T07:16:08.176Z,30.08
2023-02-22T07:18:36.941Z,38.17
2023-02-22T07:21:05.985Z,38.67
2023-02-22T07:23:34.833Z,29.40
2023-02-22T07:26:05.878Z,37.13
2023-02-22T07:28:34.648Z,35.67
2023-02-22T07:31:03.439Z,34.20
2023-02-22T07:33:32.237Z,34.30
2023-02-22T07:36:01.122Z,33.97
2023-02-22T07:38:29.908Z,31.45
2023-02-22T07:40:59.127Z,34.40
2023-02-22T07:43:32.333Z,40.45
2023-02-22T07:46:03.617Z,35.75
2023-02-22T07:48:32.996Z,37.97
2023-02-22T07:51:01.868Z,37.90
2023-02-22T07:53:34.212Z,32.05
2023-02-22T07:56:06.277Z,31.27
2023-02-22T07:58:35.973Z,38.25
2023-02-22T08:01:05.279Z,35.67
2023-02-22T08:03:37.117Z,35.88
2023-02-22T08:06:08.364Z,30.88
2023-02-22T08:08:37.364Z,32.60
2023-02-22T08:11:06.821Z,34.75
2023-02-22T08:13:37.901Z,32.70
2023-02-22T08:16:06.997Z,34.25
2023-02-22T08:18:36.123Z,38.90
2023-02-22T08:21:05.258Z,36.25
2023-02-22T08:23:34.119Z,31.40
2023-02-22T08:26:10.798Z,32.10
2023-02-22T08:28:39.443Z,33.47
2023-02-22T08:31:09.604Z,36.22
2023-02-22T08:33:38.521Z,33.75
2023-02-22T08:36:07.518Z,34.67
2023-02-22T08:38:36.367Z,34.15
2023-02-22T08:41:05.317Z,34.72
2023-02-22T08:43:33.906Z,32.67
2023-02-22T08:46:02.841Z,28.45
2023-02-22T08:48:31.609Z,32.05
2023-02-22T08:51:00.352Z,35.00
2023-02-22T08:53:29.207Z,37.30
2023-02-22T08:55:58.177Z,33.13
2023-02-22T08:58:26.955Z,30.35
2023-02-22T09:00:55.857Z,30.60
2023-02-22T09:03:24.569Z,37.65
2023-02-22T09:05:53.543Z,35.20
2023-02-22T09:08:23.096Z,30.00
2023-02-22T09:10:52.377Z,30.75
2023-02-22T09:13:21.182Z,33.47
2023-02-22T09:15:50.024Z,34.30
2023-02-22T09:18:19.735Z,33.97
2023-02-22T09:20:48.715Z,36.83
2023-02-22T09:23:17.299Z,32.60
2023-02-22T09:25:46.155Z,32.67
2023-02-22T09:28:15.342Z,35.58
2023-02-22T09:30:44.609Z,32.05
2023-02-22T09:33:18.525Z,35.75
2023-02-22T09:35:50.547Z,36.67
2023-02-22T09:38:23.866Z,41.72
2023-02-22T09:41:15.508Z,32.92
2023-02-22T09:44:23.915Z,36.45
2023-02-22T09:46:55.316Z,31.60
2023-02-22T09:49:40.354Z,37.33
2023-02-22T09:52:28.553Z,29.88
2023-02-22T09:55:09.025Z,32.47
2023-02-22T09:57:45.261Z,31.13
2023-02-22T10:00:23.147Z,37.15
2023-02-22T10:03:21.297Z,33.28
2023-02-22T10:06:03.144Z,34.63
2023-02-22T10:08:34.856Z,38.60
2023-02-22T10:11:20.843Z,31.33
2023-02-22T10:14:08.162Z,36.60
2023-02-22T10:16:37.810Z,33.67
2023-02-22T10:19:18.381Z,34.30
2023-02-22T10:21:54.259Z,30.02
2023-02-22T10:24:40.365Z,32.13
2023-02-22T10:27:19.922Z,29.33
2023-02-22T10:29:55.239Z,30.70
2023-02-22T10:32:30.754Z,30.20
2023-02-22T10:35:01.772Z,33.13
2023-02-22T10:37:33.079Z,30.02
2023-02-22T10:40:14.203Z,31.40
2023-02-22T10:42:43.003Z,31.25
2023-02-22T10:45:23.783Z,34.03
2023-02-22T10:47:56.742Z,28.58
2023-02-22T10:50:30.547Z,30.83
2023-02-22T10:52:59.408Z,30.00
2023-02-22T10:55:28.279Z,31.38
2023-02-22T10:58:07.745Z,30.92
2023-02-22T11:00:39.830Z,28.88
2023-02-22T11:03:24.785Z,32.25
2023-02-22T11:05:53.475Z,37.75
2023-02-22T11:08:22.383Z,30.27
2023-02-22T11:10:54.124Z,31.70
2023-02-22T11:13:40.920Z,33.47
2023-02-22T11:16:30.083Z,33.05
2023-02-22T11:19:12.897Z,31.10
2023-02-22T11:21:41.768Z,32.45
2023-02-22T11:24:13.468Z,30.88
2023-02-22T11:26:50.138Z,27.52
2023-02-22T11:29:33.397Z,32.97
2023-02-22T11:32:25.226Z,29.83
2023-02-22T11:35:08.331Z,31.90
2023-02-22T11:37:48.886Z,31.73
2023-02-22T11:40:22.901Z,34.65
2023-02-22T11:43:12.906Z,30.13
2023-02-22T11:46:08.952Z,27.88
2023-02-22T11:48:42.563Z,32.60
2023-02-22T11:51:25.256Z,32.35
2023-02-22T11:54:26.116Z,33.88
2023-02-22T11:57:17.106Z,32.50
2023-02-22T12:00:12.933Z,34.03
2023-02-22T12:03:12.989Z,37.10
2023-02-22T12:06:07.976Z,34.30
2023-02-22T12:08:45.666Z,36.33
2023-02-22T12:11:40.870Z,34.05
2023-02-22T12:14:26.055Z,36.92
2023-02-22T12:19:53.464Z,28.88
2023-02-22T12:22:36.269Z,31.13
2023-02-22T12:25:35.144Z,34.15
2023-02-22T12:28:31.457Z,37.55
2023-02-22T12:31:25.035Z,35.95
2023-02-22T12:34:52.257Z,34.33
2023-02-22T12:37:30.032Z,37.00
2023-02-22T12:40:24.091Z,33.15
2023-02-22T12:43:01.988Z,28.58
2023-02-22T12:46:12.357Z,36.30
2023-02-22T12:49:02.188Z,30.42
2023-02-22T12:51:46.112Z,32.22
2023-02-22T12:54:51.917Z,32.67
2023-02-22T12:57:48.830Z,27.48
2023-02-22T13:00:29.400Z,26.80
2023-02-22T13:03:29.258Z,30.77
2023-02-22T13:06:34.857Z,27.90
2023-02-22T13:09:21.599Z,26.05
2023-02-22T13:11:50.595Z,25.33
2023-02-22T13:14:30.881Z,27.55
2023-02-22T13:17:15.792Z,27.13
2023-02-22T13:20:19.170Z,30.02
2023-02-22T13:23:16.108Z,33.75
2023-02-22T13:26:08.817Z,32.17
2023-02-22T13:28:41.037Z,31.83
2023-02-22T13:31:30.476Z,31.75
2023-02-22T13:34:31.462Z,36.88
2023-02-22T13:37:18.767Z,33.25
2023-02-22T13:40:03.967Z,30.20
2023-02-22T13:45:37.326Z,31.88
2023-02-22T13:48:26.700Z,34.92
2023-02-22T13:51:33.522Z,31.05
2023-02-22T13:54:14.752Z,28.15
2023-02-22T13:56:46.254Z,28.98
2023-02-22T13:59:48.248Z,34.67
2023-02-22T14:03:03.041Z,25.60
2023-02-22T14:05:38.014Z,32.65
2023-02-22T14:10:56.296Z,32.70
2023-02-22T14:13:30.001Z,32.95
2023-02-22T14:16:02.076Z,28.95
2023-02-22T14:18:37.125Z,25.90
2023-02-22T14:21:08.749Z,29.73
2023-02-22T14:23:43.203Z,31.83
2023-02-22T14:26:31.669Z,28.63
2023-02-22T14:29:03.665Z,27.13
2023-02-22T14:31:45.092Z,32.05
2023-02-22T14:34:32.566Z,29.75
2023-02-22T14:37:05.945Z,27.40
2023-02-22T14:39:51.138Z,30.30
2023-02-22T14:42:26.330Z,40.00
2023-02-22T14:45:11.313Z,27.67
2023-02-22T14:48:04.860Z,27.58
2023-02-22T14:50:45.016Z,35.20
2023-02-22T14:53:14.046Z,32.15
2023-02-22T14:56:21.764Z,30.60
2023-02-22T14:59:00.923Z,33.22
2023-02-22T15:01:52.676Z,32.55
2023-02-22T15:04:31.612Z,32.57
2023-02-22T15:07:08.832Z,32.75
2023-02-22T15:09:38.131Z,32.50
2023-02-22T15:12:08.648Z,29.63
2023-02-22T15:14:42.580Z,26.75
2023-02-22T15:17:25.637Z,40.10
2023-02-22T15:19:55.791Z,32.35
2023-02-22T15:22:28.086Z,32.25
2023-02-22T15:25:08.367Z,31.90
2023-02-22T15:27:38.683Z,34.85
2023-02-22T15:30:19.496Z,32.38
2023-02-22T15:33:02.968Z,33.63
2023-02-22T15:35:34.304Z,30.50
2023-02-22T15:38:11.801Z,35.08
2023-02-22T15:40:43.955Z,34.58
2023-02-22T15:43:40.635Z,30.27
2023-02-22T15:46:10.210Z,38.67
2023-02-22T15:48:41.983Z,30.13
2023-02-22T15:51:15.250Z,27.80
2023-02-22T15:53:52.348Z,37.60
2023-02-22T15:56:30.743Z,32.88
2023-02-22T15:59:13.979Z,25.63
2023-02-22T16:01:46.825Z,34.13
2023-02-22T16:04:24.466Z,27.55
2023-02-22T16:07:03.600Z,31.25
2023-02-22T16:09:33.862Z,30.55
2023-02-22T16:12:29.106Z,26.58
2023-02-22T16:14:58.885Z,27.60
2023-02-22T16:17:42.699Z,36.20
2023-02-22T16:20:18.464Z,29.73
2023-02-22T16:23:01.383Z,29.55
2023-02-22T16:28:34.601Z,28.92
2023-02-22T16:31:04.539Z,27.15
2023-02-22T16:33:34.500Z,25.00
2023-02-22T16:36:08.817Z,29.05
2023-02-22T16:38:39.926Z,32.78
2023-02-22T16:41:09.025Z,30.83
2023-02-22T16:43:38.126Z,27.67
2023-02-22T16:46:08.171Z,29.60
2023-02-22T16:48:39.942Z,30.13
2023-02-22T16:51:20.079Z,23.67
2023-02-22T16:53:50.026Z,29.60
2023-02-22T16:56:21.083Z,31.05
2023-02-22T16:58:51.491Z,26.30
2023-02-22T17:01:21.234Z,27.25
2023-02-22T17:03:51.610Z,22.92
2023-02-22T17:06:20.789Z,28.73
2023-02-22T17:08:52.540Z,29.80
2023-02-22T17:11:23.502Z,27.90
2023-02-22T17:13:57.969Z,23.67
2023-02-22T17:16:28.234Z,26.73
2023-02-22T17:18:56.996Z,26.75
2023-02-22T17:21:25.767Z,24.27
2023-02-22T17:23:54.494Z,25.17
2023-02-22T17:26:24.293Z,24.52
2023-02-22T17:28:53.058Z,26.00
2023-02-22T17:31:31.496Z,26.33
2023-02-22T17:34:03.672Z,26.25
2023-02-22T17:36:34.118Z,27.95
2023-02-22T17:39:04.094Z,26.95
2023-02-22T17:41:33.282Z,21.92
2023-02-22T17:44:02.061Z,23.00
2023-02-22T17:46:30.912Z,30.20
2023-02-22T17:48:59.706Z,28.80
2023-02-22T17:51:28.423Z,22.85
2023-02-22T17:53:57.052Z,26.23
2023-02-22T17:56:26.356Z,24.45
2023-02-22T17:58:56.138Z,26.73
2023-02-22T18:01:30.841Z,25.83
2023-02-22T18:04:02.298Z,26.63
2023-02-22T18:06:33.390Z,29.30
2023-02-22T18:09:02.458Z,24.92
2023-02-22T18:11:33.278Z,28.92
2023-02-22T18:14:01.901Z,27.73
2023-02-22T18:16:30.756Z,31.25
2023-02-22T18:19:02.224Z,27.92
2023-02-22T18:21:31.210Z,27.63
2023-02-22T18:24:00.440Z,24.75
2023-02-22T18:26:29.694Z,29.52
2023-02-22T18:28:58.558Z,26.98
2023-02-22T18:31:27.513Z,29.33
2023-02-22T18:33:58.271Z,31.02
2023-02-22T18:36:27.457Z,29.73
2023-02-22T18:38:56.550Z,27.90
2023-02-22T18:41:26.063Z,35.42
2023-02-22T18:43:58.346Z,29.00
2023-02-22T18:46:27.310Z,35.15
2023-02-22T18:48:57.473Z,28.20
2023-02-22T18:51:26.878Z,29.52
2023-02-22T18:54:00.929Z,34.08
2023-02-22T18:56:32.670Z,33.33
2023-02-22T18:59:04.282Z,30.55
2023-02-22T19:01:39.472Z,34.67
2023-02-22T19:06:40.063Z,29.45
2023-02-22T19:09:09.330Z,31.60
2023-02-22T19:11:40.922Z,30.77
2023-02-22T19:14:10.405Z,27.88
2023-02-22T19:16:39.873Z,35.00
2023-02-22T19:19:08.593Z,30.38
2023-02-22T19:21:38.331Z,29.00
2023-02-22T19:24:10.010Z,32.33
2023-02-22T19:26:40.622Z,34.25
2023-02-22T19:29:09.271Z,36.05
2023-02-22T19:31:40.076Z,27.23
2023-02-22T19:34:12.090Z,30.27
2023-02-22T19:36:48.347Z,33.88
2023-02-22T19:41:49.778Z,36.70
2023-02-22T19:44:18.390Z,35.00
2023-02-22T19:46:49.535Z,34.92
2023-02-22T19:49:18.545Z,34.15
2023-02-22T19:51:47.324Z,33.97
2023-02-22T19:54:26.287Z,36.33
2023-02-22T19:56:55.047Z,39.50
2023-02-22T19:59:27.274Z,32.30
2023-02-22T20:01:57.344Z,39.65
2023-02-22T20:04:26.757Z,32.70
2023-02-22T20:06:55.905Z,38.00
2023-02-22T20:09:30.520Z,37.20
2023-02-22T20:11:59.371Z,37.10
2023-02-22T20:14:29.092Z,42.17
2023-02-22T20:16:59.386Z,38.22
2023-02-22T20:19:29.208Z,40.08
2023-02-22T20:21:58.367Z,40.00
2023-02-22T20:24:28.379Z,38.85
2023-02-22T20:26:58.885Z,39.15
2023-02-22T20:29:30.526Z,36.83
2023-02-22T20:32:01.536Z,37.70
2023-02-22T20:34:34.407Z,40.90
2023-02-22T20:37:03.807Z,35.92
2023-02-22T20:39:32.676Z,38.55
2023-02-22T20:42:01.406Z,40.08
2023-02-22T20:44:30.829Z,35.60
2023-02-22T20:46:59.634Z,43.63
2023-02-22T20:49:28.393Z,40.63
2023-02-22T20:51:57.245Z,38.78
2023-02-22T20:54:25.990Z,41.30
2023-02-22T20:56:54.745Z,45.63
2023-02-22T20:59:23.435Z,35.95
2023-02-22T21:01:53.768Z,31.38
2023-02-22T21:04:25.670Z,23.92
2023-02-22T21:06:54.394Z,19.92
2023-02-22T21:09:23.260Z,16.88
2023-02-22T21:11:52.048Z,13.27
2023-02-22T21:14:21.677Z,13.32
2023-02-22T21:16:52.231Z,13.98
2023-02-22T21:19:27.556Z,15.43
2023-02-22T21:22:00.310Z,13.63
2023-02-22T21:24:30.009Z,13.57
2023-02-22T21:26:59.399Z,12.00
2023-02-22T21:29:29.439Z,11.18
2023-02-22T21:31:58.303Z,11.25
2023-02-22T21:34:27.151Z,10.55
2023-02-22T21:36:56.149Z,11.45
2023-02-22T21:39:28.941Z,10.27
2023-02-22T21:42:01.415Z,10.32
2023-02-22T21:44:30.555Z,8.73
2023-02-22T21:46:59.416Z,10.68
2023-02-22T21:49:29.057Z,11.15
2023-02-22T21:51:58.298Z,11.25
2023-02-22T21:54:28.844Z,10.30
2023-02-22T21:56:57.426Z,9.50
2023-02-22T21:59:26.254Z,8.65
2023-02-22T22:01:56.759Z,8.27
2023-02-22T22:04:30.819Z,8.65
2023-02-22T22:07:02.144Z,7.97
2023-02-22T22:09:36.192Z,9.52
2023-02-22T22:12:11.282Z,7.72
2023-02-22T22:14:41.035Z,9.77
2023-02-22T22:17:12.829Z,8.25
2023-02-22T22:19:42.320Z,8.95
2023-02-22T22:22:11.378Z,9.68
2023-02-22T22:24:42.492Z,10.82
2023-02-22T22:27:13.648Z,10.70
2023-02-22T22:29:44.166Z,10.27
2023-02-22T22:32:13.121Z,10.45
2023-02-22T22:34:43.382Z,9.45
2023-02-22T22:37:12.074Z,9.90
2023-02-22T22:39:40.937Z,9.40
2023-02-22T22:42:10.110Z,9.20
2023-02-22T22:44:42.751Z,8.60
2023-02-22T22:47:14.657Z,9.32
2023-02-22T22:49:43.426Z,9.88
2023-02-22T22:52:19.754Z,8.20
2023-02-22T22:54:48.446Z,10.38
2023-02-22T22:57:17.757Z,10.82
2023-02-22T22:59:46.593Z,11.50
2023-02-22T23:02:15.295Z,10.80
2023-02-22T23:04:44.086Z,9.80
2023-02-22T23:07:14.080Z,10.10
2023-02-22T23:09:42.858Z,9.32
2023-02-22T23:12:31.712Z,8.75
2023-02-22T23:15:00.528Z,10.23
2023-02-22T23:17:34.885Z,10.55
2023-02-22T23:20:11.901Z,12.00
2023-02-22T23:22:44.436Z,9.75
2023-02-22T23:25:13.131Z,9.95
2023-02-22T23:27:41.994Z,10.00
2023-02-22T23:30:15.788Z,10.13
2023-02-22T23:32:47.137Z,10.13
2023-02-22T23:35:16.886Z,11.38
2023-02-22T23:37:47.069Z,11.93
2023-02-22T23:40:19.441Z,10.73
2023-02-22T23:42:50.113Z,10.07
2023-02-22T23:45:24.642Z,10.90
2023-02-22T23:47:55.785Z,13.05
2023-02-22T23:50:29.906Z,11.38
2023-02-22T23:53:00.976Z,16.08
2023-02-22T23:55:32.388Z,11.18
2023-02-22T23:58:01.195Z,11.75
